Time;durP1;ratioP1;P1;durP2;ratioP2;P2;SDS_P1;SDS_P2;PMS_P1;PMS_P2;Temp;Humidity;BMP_temperature;BMP_pressure;BME280_temperature;BME280_humidity;BME280_pressure;Samples;Min_cycle;Max_cycle;Signal;HPM_P1;HPM_P2
2023/07/27 00:00:25;;;;;;;7.40;2.27;;;14.70;99.90;;;;;;5028047;28;20379;-68
2023/07/27 00:02:50;;;;;;;6.63;2.40;;;14.80;99.90;;;;;;5027312;28;20411;-68
2023/07/27 00:05:16;;;;;;;9.60;2.72;;;15.00;46.70;;;;;;5028118;28;20415;-68
2023/07/27 00:07:41;;;;;;;7.90;2.67;;;15.00;1.00;;;;;;5027014;28;20430;-68
2023/07/27 00:10:07;;;;;;;6.77;2.10;;;15.00;1.00;;;;;;5027675;28;20970;-68
2023/07/27 00:12:32;;;;;;;7.90;2.30;;;15.00;1.00;;;;;;5030248;28;20398;-68
2023/07/27 00:14:58;;;;;;;6.50;1.92;;;15.00;1.00;;;;;;5028725;28;20399;-68
2023/07/27 00:17:23;;;;;;;7.43;2.17;;;15.10;1.00;;;;;;5028525;28;20426;-68
2023/07/27 00:19:49;;;;;;;7.13;2.03;;;15.10;1.00;;;;;;5027916;28;20934;-68
2023/07/27 00:22:14;;;;;;;7.13;2.70;;;15.20;1.00;;;;;;5027248;28;20752;-68
2023/07/27 00:24:40;;;;;;;7.17;2.37;;;15.20;1.00;;;;;;5027561;28;20423;-68
2023/07/27 00:27:05;;;;;;;8.80;2.00;;;15.30;1.00;;;;;;5028402;28;20399;-68
2023/07/27 00:29:31;;;;;;;6.95;2.30;;;15.30;1.00;;;;;;5028122;28;20394;-68
2023/07/27 00:31:57;;;;;;;7.20;2.43;;;15.30;1.00;;;;;;5028250;28;20945;-68
2023/07/27 00:34:22;;;;;;;7.67;2.87;;;15.30;8.20;;;;;;5027815;28;21049;-68
2023/07/27 00:36:48;;;;;;;10.50;2.10;;;15.40;1.00;;;;;;5028032;28;20912;-68
2023/07/27 00:39:13;;;;;;;6.38;1.92;;;15.40;1.00;;;;;;5027862;28;20399;-68
2023/07/27 00:41:43;;;;;;;6.35;1.98;;;15.50;1.00;;;;;;5027847;28;20422;-68
2023/07/27 00:44:09;;;;;;;7.20;2.50;;;15.50;1.00;;;;;;5027845;28;20417;-68
2023/07/27 00:46:36;;;;;;;8.88;2.38;;;15.50;1.00;;;;;;5027869;28;20390;-68
2023/07/27 00:49:03;;;;;;;6.60;2.20;;;15.50;1.00;;;;;;5028096;28;20387;-68
2023/07/27 00:51:34;;;;;;;6.43;2.03;;;15.50;1.00;;;;;;5018406;28;20772;-68
2023/07/27 00:54:00;;;;;;;6.10;1.80;;;15.40;52.70;;;;;;5027476;28;20403;-68
2023/07/27 00:57:09;;;;;;;6.43;2.20;;;15.30;99.90;;;;;;5026916;28;20390;-68
2023/07/27 00:59:35;;;;;;;7.45;2.55;;;15.10;99.90;;;;;;5027271;28;20786;-68
2023/07/27 01:02:01;;;;;;;7.95;2.15;;;15.00;99.90;;;;;;5029554;28;20961;-68
2023/07/27 01:04:26;;;;;;;6.33;2.40;;;14.90;99.90;;;;;;5028068;28;20415;-68
2023/07/27 01:06:52;;;;;;;7.40;2.10;;;14.80;99.90;;;;;;5025365;28;20402;-67
2023/07/27 01:09:18;;;;;;;6.47;2.10;;;14.80;99.90;;;;;;5028268;28;20431;-68
2023/07/27 01:12:24;;;;;;;6.60;2.07;;;14.80;99.90;;;;;;5027259;28;20395;-68
2023/07/27 01:15:08;;;;;;;7.75;2.45;;;14.80;99.90;;;;;;5026686;28;20477;-68
2023/07/27 01:17:44;;;;;;;6.18;2.10;;;14.70;99.90;;;;;;5024475;28;20446;-68
2023/07/27 01:20:27;;;;;;;6.55;2.10;;;14.70;99.90;;;;;;5029614;28;20386;-68
2023/07/27 01:23:12;;;;;;;9.40;2.03;;;14.60;99.90;;;;;;5023895;28;20526;-68
2023/07/27 01:25:53;;;;;;;8.20;2.22;;;14.70;99.90;;;;;;5025017;28;20459;-68
2023/07/27 01:28:19;;;;;;;7.45;2.58;;;14.70;99.90;;;;;;5025362;28;20490;-68
2023/07/27 01:30:53;;;;;;;7.87;2.70;;;14.60;99.90;;;;;;5030905;28;20812;-68
2023/07/27 01:33:32;;;;;;;6.43;2.10;;;14.60;99.90;;;;;;5028498;28;20399;-67
2023/07/27 01:36:34;;;;;;;7.32;2.20;;;14.60;99.90;;;;;;5029834;28;20478;-68
2023/07/27 01:39:03;;;;;;;8.00;2.10;;;14.60;99.90;;;;;;5027991;28;20929;-68
2023/07/27 01:41:30;;;;;;;6.78;2.50;;;14.70;99.90;;;;;;5030618;28;20762;-67
2023/07/27 01:43:56;;;;;;;6.63;1.90;;;14.80;99.90;;;;;;5030804;28;20628;-68
2023/07/27 01:46:24;;;;;;;6.38;2.00;;;14.70;99.90;;;;;;5030143;28;20442;-68
2023/07/27 01:48:51;;;;;;;5.90;2.10;;;14.80;99.90;;;;;;5029904;28;20399;-68
2023/07/27 01:51:17;;;;;;;8.93;2.67;;;14.80;99.90;;;;;;5030284;28;20488;-68
2023/07/27 01:53:44;;;;;;;8.50;2.00;;;14.80;99.90;;;;;;5030741;28;20912;-68
2023/07/27 01:56:12;;;;;;;5.70;1.80;;;14.70;99.90;;;;;;5027068;28;20742;-68
2023/07/27 01:58:39;;;;;;;6.28;1.92;;;14.70;99.90;;;;;;5030490;28;20461;-68
2023/07/27 02:01:06;;;;;;;6.53;2.15;;;14.80;99.90;;;;;;5030768;28;20467;-67
2023/07/27 02:03:32;;;;;;;6.20;1.67;;;14.90;14.90;;;;;;5031068;28;20414;-67
2023/07/27 02:05:58;;;;;;;5.80;1.80;;;14.80;1.00;;;;;;5031860;28;20925;-67
2023/07/27 02:08:23;;;;;;;5.83;1.97;;;14.80;1.00;;;;;;5031399;28;20391;-67
2023/07/27 02:10:58;;;;;;;5.80;2.00;;;14.80;36.90;;;;;;5030638;28;20395;-67
2023/07/27 02:13:44;;;;;;;5.90;1.90;;;14.80;1.00;;;;;;5031369;28;20860;-67
2023/07/27 02:16:42;;;;;;;8.02;2.58;;;14.70;27.00;;;;;;5030841;28;20431;-67
2023/07/27 02:19:09;;;;;;;5.32;1.60;;;14.80;18.70;;;;;;5029865;28;20418;-67
2023/07/27 02:21:35;;;;;;;6.45;1.98;;;14.80;14.30;;;;;;5030721;28;20483;-68
2023/07/27 02:24:03;;;;;;;5.88;1.80;;;14.80;18.40;;;;;;5030630;28;20395;-67
2023/07/27 02:26:29;;;;;;;5.68;1.77;;;14.70;8.20;;;;;;5030105;28;20915;-67
2023/07/27 02:28:56;;;;;;;7.10;1.80;;;14.80;1.00;;;;;;5030905;28;20397;-68
2023/07/27 02:31:23;;;;;;;6.90;2.30;;;14.80;1.00;;;;;;5030574;28;20438;-67
2023/07/27 02:33:48;;;;;;;6.32;2.00;;;14.70;1.00;;;;;;5030132;28;20829;-67
2023/07/27 02:36:14;;;;;;;6.33;1.40;;;14.80;1.00;;;;;;5030296;28;20415;-68
2023/07/27 02:38:40;;;;;;;6.07;2.10;;;14.70;1.00;;;;;;5029929;28;20444;-68
2023/07/27 02:41:05;;;;;;;6.20;2.10;;;14.80;1.00;;;;;;5029602;28;20383;-68
2023/07/27 02:43:31;;;;;;;5.90;2.00;;;14.90;99.90;;;;;;5029778;28;20863;-68
2023/07/27 02:45:59;;;;;;;6.28;1.90;;;15.00;99.90;;;;;;5030569;28;20427;-67
2023/07/27 02:48:24;;;;;;;5.60;1.70;;;14.90;99.90;;;;;;5030510;28;20479;-67
2023/07/27 02:50:51;;;;;;;6.50;1.90;;;14.90;99.90;;;;;;5030819;28;20478;-67
2023/07/27 02:53:17;;;;;;;6.75;1.70;;;14.90;99.90;;;;;;5030683;28;20395;-68
2023/07/27 02:55:43;;;;;;;6.37;2.00;;;15.00;99.90;;;;;;5029227;28;20403;-67
2023/07/27 02:58:08;;;;;;;5.93;1.90;;;15.00;99.90;;;;;;5028407;28;20422;-67
2023/07/27 03:00:34;;;;;;;5.63;1.70;;;15.10;1.00;;;;;;5030238;28;20860;-67
2023/07/27 03:03:02;;;;;;;6.72;1.85;;;15.10;18.00;;;;;;5031064;28;20461;-67
2023/07/27 03:05:28;;;;;;;5.97;1.80;;;15.10;99.90;;;;;;5030106;28;20435;-67
2023/07/27 03:07:54;;;;;;;6.37;1.73;;;15.00;99.90;;;;;;5026866;28;20391;-67
2023/07/27 03:10:19;;;;;;;5.57;1.67;;;15.10;2.60;;;;;;5029739;28;20395;-67
2023/07/27 03:12:45;;;;;;;5.30;1.52;;;15.20;1.00;;;;;;5030542;28;20486;-67
2023/07/27 03:15:10;;;;;;;6.47;1.60;;;15.20;99.90;;;;;;5029573;28;20474;-67
2023/07/27 03:17:36;;;;;;;7.80;1.90;;;15.20;1.00;;;;;;5030108;28;20783;-67
2023/07/27 03:20:02;;;;;;;6.37;2.10;;;15.30;1.00;;;;;;5031046;28;20402;-67
2023/07/27 03:22:27;;;;;;;6.10;1.92;;;15.40;99.90;;;;;;5029873;28;20399;-67
2023/07/27 03:24:53;;;;;;;7.00;1.90;;;15.40;41.20;;;;;;5028716;28;20731;-67
2023/07/27 03:27:18;;;;;;;5.70;2.00;;;15.40;99.90;;;;;;5029156;28;20807;-67
2023/07/27 03:29:44;;;;;;;6.13;1.50;;;15.50;99.90;;;;;;5029031;28;20396;-68
2023/07/27 03:32:09;;;;;;;6.32;1.67;;;15.50;1.00;;;;;;5028951;28;20400;-68
2023/07/27 03:34:35;;;;;;;5.50;1.60;;;15.50;1.00;;;;;;5029302;28;20437;-67
2023/07/27 03:37:00;;;;;;;6.27;1.90;;;15.60;1.00;;;;;;5028387;28;20949;-68
2023/07/27 03:39:26;;;;;;;6.20;1.93;;;15.60;99.90;;;;;;5029315;28;20387;-68
2023/07/27 03:41:51;;;;;;;5.93;2.00;;;15.60;1.00;;;;;;5028209;28;20395;-68
2023/07/27 03:44:17;;;;;;;7.10;1.90;;;15.60;1.00;;;;;;5025987;28;20488;-68
2023/07/27 03:46:43;;;;;;;6.47;2.20;;;15.60;99.90;;;;;;5028995;28;20487;-68
2023/07/27 03:49:09;;;;;;;6.20;1.80;;;15.70;99.90;;;;;;5029100;28;20391;-68
2023/07/27 03:51:34;;;;;;;6.88;2.22;;;15.70;99.90;;;;;;5028525;28;20889;-68
2023/07/27 03:54:00;;;;;;;6.77;1.53;;;15.60;1.00;;;;;;5048621;28;20461;-68
2023/07/27 03:56:25;;;;;;;6.00;1.83;;;15.60;1.00;;;;;;5043139;28;20705;-68
2023/07/27 03:58:51;;;;;;;6.38;1.75;;;15.50;1.00;;;;;;5028560;28;20414;-67
2023/07/27 04:01:17;;;;;;;7.50;2.10;;;15.60;1.00;;;;;;5028499;28;20403;-67
2023/07/27 04:03:42;;;;;;;6.43;2.10;;;15.60;1.00;;;;;;5028702;28;20397;-67
2023/07/27 04:06:08;;;;;;;6.40;2.00;;;15.60;1.00;;;;;;5028152;28;20507;-68
2023/07/27 04:08:33;;;;;;;6.50;2.00;;;15.60;99.90;;;;;;5028952;28;20461;-67
2023/07/27 04:10:59;;;;;;;6.65;1.88;;;15.80;93.20;;;;;;5028589;28;20449;-67
2023/07/27 04:13:24;;;;;;;7.00;1.80;;;15.90;1.00;;;;;;5028684;28;20893;-67
2023/07/27 04:15:50;;;;;;;9.40;2.30;;;16.00;1.00;;;;;;5019409;28;20403;-67
2023/07/27 04:18:16;;;;;;;11.70;2.50;;;16.10;99.90;;;;;;5028205;28;20399;-72
2023/07/27 04:20:41;;;;;;;8.15;1.88;;;16.30;41.30;;;;;;5026464;28;20405;-72
2023/07/27 04:23:07;;;;;;;6.50;1.90;;;16.30;1.00;;;;;;5028887;28;20387;-72
2023/07/27 04:25:32;;;;;;;6.90;2.67;;;16.10;99.90;;;;;;5028211;28;20446;-72
2023/07/27 04:27:58;;;;;;;7.13;2.00;;;16.10;1.00;;;;;;5048911;28;20781;-74
2023/07/27 04:30:23;;;;;;;5.80;2.00;;;16.10;1.00;;;;;;5048433;28;20400;-73
2023/07/27 04:32:49;;;;;;;7.50;2.00;;;16.00;99.90;;;;;;5044276;28;21387;-73
2023/07/27 04:35:15;;;;;;;8.00;2.70;;;16.00;99.90;;;;;;5026812;28;20410;-73
2023/07/27 04:37:40;;;;;;;6.67;2.13;;;16.00;1.00;;;;;;5026659;28;20776;-73
2023/07/27 04:40:06;;;;;;;6.28;2.05;;;16.00;1.00;;;;;;5027605;28;20399;-67
2023/07/27 04:42:32;;;;;;;6.18;1.90;;;16.00;99.90;;;;;;5028447;28;20429;-67
2023/07/27 04:44:57;;;;;;;7.10;1.80;;;16.00;99.90;;;;;;5028410;28;20422;-67
2023/07/27 04:47:23;;;;;;;6.83;1.93;;;16.00;1.00;;;;;;5027830;28;20395;-67
2023/07/27 04:49:49;;;;;;;7.10;2.00;;;16.10;99.90;;;;;;5027814;28;20385;-67
2023/07/27 04:52:14;;;;;;;6.60;2.17;;;16.00;1.00;;;;;;5027897;28;20425;-67
2023/07/27 04:54:40;;;;;;;6.90;2.10;;;16.10;1.00;;;;;;5024923;28;20391;-67
2023/07/27 04:57:06;;;;;;;6.45;2.30;;;16.10;99.90;;;;;;5023168;28;20399;-67
2023/07/27 04:59:31;;;;;;;7.67;2.00;;;16.10;99.90;;;;;;5027728;28;20474;-67
2023/07/27 05:01:57;;;;;;;6.10;2.10;;;16.20;1.00;;;;;;5029998;28;20831;-68
2023/07/27 05:04:22;;;;;;;5.93;1.80;;;16.20;99.90;;;;;;5029700;28;20399;-67
2023/07/27 05:06:48;;;;;;;8.10;2.50;;;16.30;94.70;;;;;;5031267;28;20449;-67
2023/07/27 05:09:14;;;;;;;5.90;1.93;;;16.40;1.00;;;;;;5024698;28;20452;-67
2023/07/27 05:11:39;;;;;;;6.40;2.20;;;16.40;76.30;;;;;;5028987;28;20388;-68
2023/07/27 05:14:05;;;;;;;7.10;2.30;;;16.50;99.90;;;;;;5031752;28;20506;-68
2023/07/27 05:16:31;;;;;;;8.40;2.55;;;16.60;1.00;;;;;;5032415;28;20390;-67
2023/07/27 05:18:57;;;;;;;9.52;2.35;;;16.70;99.90;;;;;;5011834;28;20474;-68
2023/07/27 05:21:23;;;;;;;6.80;2.13;;;16.90;1.00;;;;;;5029064;28;20407;-68
2023/07/27 05:23:49;;;;;;;5.80;1.90;;;16.90;99.90;;;;;;5031665;28;20391;-68
2023/07/27 05:26:15;;;;;;;6.35;2.08;;;16.90;1.00;;;;;;5031411;28;21017;-67
2023/07/27 05:28:40;;;;;;;6.40;2.23;;;16.90;99.90;;;;;;5031014;28;20545;-67
2023/07/27 05:31:07;;;;;;;6.73;1.87;;;16.80;99.90;;;;;;5031319;28;20399;-67
2023/07/27 05:33:33;;;;;;;6.88;1.90;;;16.60;7.90;;;;;;5031469;28;20469;-67
2023/07/27 05:35:58;;;;;;;5.50;1.70;;;16.70;1.00;;;;;;5042467;28;20418;-67
2023/07/27 05:38:24;;;;;;;5.73;1.67;;;16.70;1.00;;;;;;5031681;28;20387;-67
2023/07/27 05:40:49;;;;;;;6.80;1.97;;;16.70;1.00;;;;;;5031455;28;20744;-67
2023/07/27 05:43:15;;;;;;;6.63;1.98;;;16.90;99.90;;;;;;5031252;28;20390;-67
2023/07/27 05:45:41;;;;;;;6.70;1.70;;;16.90;99.90;;;;;;5030793;28;20480;-67
2023/07/27 05:48:06;;;;;;;6.47;1.83;;;16.90;99.90;;;;;;5030949;28;20378;-67
2023/07/27 05:50:33;;;;;;;6.38;1.83;;;16.80;1.00;;;;;;5031035;28;20445;-67
2023/07/27 05:52:59;;;;;;;6.80;1.90;;;17.00;99.90;;;;;;5031940;28;20392;-68
2023/07/27 05:55:24;;;;;;;7.37;2.17;;;17.00;99.90;;;;;;5012670;28;20421;-67
2023/07/27 05:57:50;;;;;;;7.20;1.70;;;17.10;99.90;;;;;;5030102;28;20403;-67
2023/07/27 06:00:16;;;;;;;6.80;1.77;;;17.20;1.00;;;;;;5012431;28;20891;-67
2023/07/27 06:02:41;;;;;;;6.88;1.73;;;17.20;99.90;;;;;;5029724;28;20506;-67
2023/07/27 06:05:08;;;;;;;6.00;1.97;;;17.20;1.00;;;;;;5025809;28;20807;-67
2023/07/27 06:07:33;;;;;;;5.70;1.70;;;17.30;70.30;;;;;;5021752;28;20810;-67
2023/07/27 06:09:59;;;;;;;6.80;2.10;;;17.50;1.00;;;;;;5039611;28;20391;-67
2023/07/27 06:12:24;;;;;;;7.68;1.80;;;17.70;99.90;;;;;;5031392;28;20383;-67
2023/07/27 06:14:51;;;;;;;7.15;1.50;;;18.00;99.90;;;;;;5030206;28;20399;-67
2023/07/27 06:17:17;;;;;;;7.38;1.73;;;18.20;1.00;;;;;;5030245;28;20482;-67
2023/07/27 06:19:42;;;;;;;8.30;1.70;;;18.30;1.00;;;;;;5030880;28;20419;-67
2023/07/27 06:22:08;;;;;;;6.80;1.90;;;18.50;1.00;;;;;;5030798;28;20752;-67
2023/07/27 06:24:33;;;;;;;7.15;1.63;;;18.40;1.00;;;;;;5031043;28;20399;-67
2023/07/27 06:26:59;;;;;;;8.60;1.70;;;18.40;99.90;;;;;;5030336;28;20409;-67
2023/07/27 06:29:25;;;;;;;6.27;1.90;;;18.50;99.90;;;;;;5031072;28;20478;-67
2023/07/27 06:31:50;;;;;;;6.57;1.67;;;18.90;99.90;;;;;;5029648;28;20528;-67
2023/07/27 06:34:16;;;;;;;6.90;1.80;;;19.00;99.90;;;;;;5012165;28;20403;-67
2023/07/27 06:36:41;;;;;;;5.70;1.60;;;19.10;99.90;;;;;;5029790;28;20864;-67
2023/07/27 06:39:07;;;;;;;5.90;1.77;;;19.50;81.70;;;;;;5030248;28;20791;-67
2023/07/27 06:41:33;;;;;;;5.50;1.53;;;19.80;1.00;;;;;;5030798;28;20402;-67
2023/07/27 06:43:59;;;;;;;6.13;1.70;;;19.90;1.00;;;;;;5030393;28;20494;-67
2023/07/27 06:46:26;;;;;;;5.40;1.58;;;19.70;1.00;;;;;;5012176;28;20425;-66
2023/07/27 06:48:52;;;;;;;5.93;1.70;;;19.70;1.00;;;;;;5029796;28;20400;-66
2023/07/27 06:51:18;;;;;;;6.57;1.60;;;19.40;1.00;;;;;;5030104;28;20384;-67
2023/07/27 06:53:43;;;;;;;6.10;1.80;;;19.30;28.60;;;;;;5029780;28;20566;-67
2023/07/27 06:56:09;;;;;;;8.50;2.30;;;19.10;76.30;;;;;;5029525;28;20922;-67
2023/07/27 06:58:35;;;;;;;6.73;1.43;;;18.90;99.90;;;;;;5030245;28;20419;-67
2023/07/27 07:01:00;;;;;;;6.30;1.50;;;18.90;99.90;;;;;;5029449;28;20474;-67
2023/07/27 07:03:26;;;;;;;7.05;1.77;;;18.90;99.90;;;;;;5029644;28;20407;-67
2023/07/27 07:05:55;;;;;;;5.82;1.70;;;18.80;99.90;;;;;;5029492;28;20506;-67
2023/07/27 07:08:20;;;;;;;5.80;1.80;;;18.80;99.90;;;;;;5029166;28;20444;-67
2023/07/27 07:10:46;;;;;;;5.90;1.40;;;19.00;99.90;;;;;;5029812;28;20776;-67
2023/07/27 07:13:12;;;;;;;5.63;1.70;;;19.10;1.00;;;;;;5025691;28;20431;-67
2023/07/27 07:15:38;;;;;;;5.10;1.40;;;19.00;1.00;;;;;;5012185;28;20413;-67
2023/07/27 07:18:03;;;;;;;5.90;1.90;;;19.10;99.90;;;;;;5029719;28;20403;-67
2023/07/27 07:20:29;;;;;;;6.30;1.90;;;19.20;99.90;;;;;;5022053;28;20398;-67
2023/07/27 07:22:55;;;;;;;7.18;1.90;;;19.10;99.90;;;;;;5022880;28;20419;-67
2023/07/27 07:25:21;;;;;;;6.23;1.73;;;19.00;99.90;;;;;;5009316;28;20417;-67
2023/07/27 07:27:46;;;;;;;5.97;1.50;;;19.00;99.90;;;;;;5022551;28;20390;-67
2023/07/27 07:30:12;;;;;;;6.65;1.75;;;19.00;99.90;;;;;;5028824;28;21196;-67
2023/07/27 07:32:38;;;;;;;5.10;1.20;;;19.10;99.90;;;;;;5012036;28;20399;-67
2023/07/27 07:35:03;;;;;;;5.67;1.60;;;19.00;99.90;;;;;;5028909;28;20395;-67
2023/07/27 07:37:29;;;;;;;5.40;1.58;;;18.90;99.90;;;;;;5028738;28;20891;-67
2023/07/27 07:39:55;;;;;;;5.83;1.73;;;19.00;99.90;;;;;;5029099;28;20925;-67
2023/07/27 07:42:21;;;;;;;6.27;1.63;;;19.00;99.90;;;;;;5028819;28;20387;-67
2023/07/27 07:44:47;;;;;;;6.32;1.85;;;18.90;99.90;;;;;;5028827;28;20406;-67
2023/07/27 07:47:12;;;;;;;7.70;1.90;;;19.10;99.90;;;;;;5029161;28;20453;-67
2023/07/27 07:49:38;;;;;;;5.90;1.60;;;19.20;99.90;;;;;;5029237;28;20532;-67
2023/07/27 07:52:04;;;;;;;7.47;2.20;;;19.20;99.90;;;;;;5029103;28;20422;-67
2023/07/27 07:54:30;;;;;;;5.80;1.70;;;19.30;99.90;;;;;;5029061;28;20402;-67
2023/07/27 07:56:55;;;;;;;6.32;1.80;;;19.30;99.90;;;;;;5029200;28;20395;-67
2023/07/27 07:59:22;;;;;;;6.13;1.83;;;19.10;1.00;;;;;;5028271;28;20532;-67
2023/07/27 08:01:48;;;;;;;6.50;2.10;;;19.10;99.90;;;;;;5028593;28;20422;-67
2023/07/27 08:04:13;;;;;;;5.95;1.63;;;18.90;7.70;;;;;;5028632;28;20415;-67
2023/07/27 08:06:39;;;;;;;5.90;1.67;;;18.90;96.70;;;;;;5029174;28;20419;-67
2023/07/27 08:09:06;;;;;;;6.30;1.97;;;18.80;1.00;;;;;;5028653;28;20482;-66
2023/07/27 08:11:32;;;;;;;6.25;1.67;;;18.80;99.90;;;;;;5028383;28;20407;-66
2023/07/27 08:14:02;;;;;;;5.90;1.77;;;18.80;1.00;;;;;;5027451;28;20413;-66
2023/07/27 08:16:31;;;;;;;7.10;2.38;;;18.60;99.90;;;;;;5022641;28;20764;-66
2023/07/27 08:18:57;;;;;;;6.10;2.03;;;18.50;1.00;;;;;;5028455;28;20756;-67
2023/07/27 08:21:22;;;;;;;6.75;1.75;;;18.60;99.90;;;;;;5020475;28;20426;-66
2023/07/27 08:23:48;;;;;;;6.10;2.28;;;18.60;61.20;;;;;;5006982;28;20400;-66
2023/07/27 08:26:14;;;;;;;5.60;1.90;;;18.80;1.00;;;;;;5009014;28;20432;-66
2023/07/27 08:28:41;;;;;;;5.63;1.50;;;18.90;1.00;;;;;;5008238;28;20882;-67
2023/07/27 08:31:07;;;;;;;5.50;1.50;;;18.80;1.00;;;;;;5010128;28;20501;-67
2023/07/27 08:33:33;;;;;;;7.07;1.67;;;18.70;1.00;;;;;;5027521;28;21031;-67
2023/07/27 08:36:02;;;;;;;5.50;1.60;;;18.80;1.00;;;;;;5026359;28;20407;-67
2023/07/27 08:38:28;;;;;;;7.00;2.03;;;18.90;1.00;;;;;;5011940;28;20401;-67
2023/07/27 08:40:58;;;;;;;5.50;1.40;;;19.00;1.00;;;;;;5013092;28;20397;-67
2023/07/27 08:43:24;;;;;;;6.30;1.60;;;19.00;1.00;;;;;;5022065;28;20415;-67
2023/07/27 08:45:51;;;;;;;6.20;1.90;;;19.00;99.90;;;;;;5016953;28;20416;-67
2023/07/27 08:48:16;;;;;;;6.22;1.83;;;19.10;1.00;;;;;;4996706;28;20418;-67
2023/07/27 08:50:47;;;;;;;6.33;2.00;;;19.20;99.90;;;;;;5031823;28;20390;-67
2023/07/27 08:53:13;;;;;;;7.68;1.60;;;19.20;13.00;;;;;;5031860;28;20429;-67
2023/07/27 08:55:40;;;;;;;7.70;2.00;;;19.20;1.00;;;;;;5029710;28;20918;-67
2023/07/27 08:58:09;;;;;;;5.90;1.70;;;19.30;1.00;;;;;;5024054;28;20418;-67
2023/07/27 09:00:38;;;;;;;6.00;1.80;;;19.30;1.00;;;;;;5031701;28;20387;-67
2023/07/27 09:03:04;;;;;;;6.63;1.85;;;19.20;1.00;;;;;;5031916;28;20422;-67
2023/07/27 09:05:45;;;;;;;5.95;1.52;;;19.10;1.00;;;;;;5030959;28;20422;-67
2023/07/27 09:08:13;;;;;;;6.70;1.70;;;19.00;99.90;;;;;;5031834;28;20418;-67
2023/07/27 09:10:41;;;;;;;6.32;1.98;;;18.90;1.00;;;;;;5031455;28;20387;-67
2023/07/27 09:13:07;;;;;;;6.45;1.85;;;19.00;1.00;;;;;;5031075;28;20395;-67
2023/07/27 09:15:33;;;;;;;5.93;1.50;;;19.10;1.00;;;;;;5040377;28;20880;-67
2023/07/27 09:18:01;;;;;;;6.70;1.73;;;19.20;1.00;;;;;;5051379;28;21177;-67
2023/07/27 09:20:28;;;;;;;7.30;1.90;;;19.10;1.00;;;;;;5049085;28;20394;-67
2023/07/27 09:22:56;;;;;;;6.38;1.77;;;19.00;1.00;;;;;;5031572;28;20897;-67
2023/07/27 09:25:22;;;;;;;8.30;1.80;;;19.10;99.90;;;;;;5030791;28;20477;-67
2023/07/27 09:27:51;;;;;;;6.57;1.90;;;19.20;99.90;;;;;;5031209;28;20465;-67
2023/07/27 09:30:17;;;;;;;7.68;1.80;;;19.30;98.10;;;;;;5031599;28;20490;-67
2023/07/27 09:32:43;;;;;;;5.95;1.75;;;19.20;64.10;;;;;;5041307;28;21016;-67
2023/07/27 09:35:19;;;;;;;6.30;1.90;;;19.20;99.90;;;;;;5051303;28;20778;-67
2023/07/27 09:37:51;;;;;;;5.45;1.60;;;19.40;48.70;;;;;;5051460;28;20487;-67
2023/07/27 09:40:19;;;;;;;6.50;1.93;;;19.30;99.90;;;;;;5041041;28;20414;-67
2023/07/27 09:42:45;;;;;;;9.30;1.60;;;19.40;99.90;;;;;;5031089;28;20377;-67
2023/07/27 09:45:13;;;;;;;7.23;1.80;;;19.40;99.90;;;;;;5030862;28;20425;-67
2023/07/27 09:47:39;;;;;;;7.50;1.83;;;19.40;99.90;;;;;;5030863;28;20395;-67
2023/07/27 09:50:06;;;;;;;8.50;1.90;;;19.30;99.90;;;;;;5034769;28;20403;-67
2023/07/27 09:52:35;;;;;;;6.47;2.00;;;19.20;99.90;;;;;;5030532;28;20387;-67
2023/07/27 09:55:01;;;;;;;6.00;1.60;;;19.20;95.10;;;;;;5029679;28;20402;-67
2023/07/27 09:57:27;;;;;;;6.15;1.70;;;19.10;47.80;;;;;;5017345;28;20962;-67
2023/07/27 09:59:53;;;;;;;6.10;1.60;;;19.10;1.00;;;;;;5011331;28;20699;-67
2023/07/27 10:02:21;;;;;;;6.60;1.60;;;19.20;1.00;;;;;;5030137;28;20533;-67
2023/07/27 10:04:50;;;;;;;8.20;1.73;;;19.40;99.90;;;;;;5030373;28;20410;-67
2023/07/27 10:07:18;;;;;;;7.87;2.07;;;19.60;24.80;;;;;;5027131;28;20765;-68
2023/07/27 10:09:45;;;;;;;8.95;1.92;;;19.70;1.00;;;;;;5030097;28;20429;-67
2023/07/27 10:12:11;;;;;;;7.57;1.73;;;19.60;1.00;;;;;;5030615;28;20399;-67
2023/07/27 10:14:38;;;;;;;10.47;1.90;;;19.60;1.00;;;;;;5029952;28;20941;-67
2023/07/27 10:17:08;;;;;;;5.30;1.60;;;19.50;1.00;;;;;;5030366;28;20429;-67
2023/07/27 10:19:44;;;;;;;6.30;2.00;;;19.60;1.00;;;;;;5030191;28;20399;-67
2023/07/27 10:22:17;;;;;;;6.50;2.00;;;19.70;1.00;;;;;;5024374;28;20391;-67
2023/07/27 10:24:51;;;;;;;6.67;1.87;;;19.80;1.00;;;;;;5029878;28;20423;-67
2023/07/27 10:27:18;;;;;;;6.30;1.70;;;19.90;1.00;;;;;;5010336;28;20479;-67
2023/07/27 10:29:52;;;;;;;6.53;1.80;;;19.90;99.90;;;;;;5010927;28;20397;-67
2023/07/27 10:32:18;;;;;;;6.05;1.80;;;19.90;99.90;;;;;;5010433;28;20381;-67
2023/07/27 10:34:49;;;;;;;5.70;1.50;;;20.10;99.90;;;;;;4992360;28;20408;-67
2023/07/27 10:37:15;;;;;;;5.40;1.60;;;20.10;99.90;;;;;;5009868;28;20387;-67
2023/07/27 10:39:50;;;;;;;7.00;2.20;;;20.10;99.90;;;;;;5017040;28;20760;-68
2023/07/27 10:42:26;;;;;;;7.95;1.75;;;20.40;99.90;;;;;;5029703;28;20391;-68
2023/07/27 10:44:54;;;;;;;5.83;1.73;;;20.40;99.90;;;;;;5029875;28;20589;-67
2023/07/27 10:47:24;;;;;;;7.00;1.80;;;20.70;99.90;;;;;;5029451;28;20426;-68
2023/07/27 10:49:56;;;;;;;7.47;2.10;;;20.70;71.40;;;;;;5029533;28;20486;-68
2023/07/27 10:52:26;;;;;;;6.73;1.83;;;20.80;1.00;;;;;;5028962;28;20437;-68
2023/07/27 10:54:53;;;;;;;7.63;1.90;;;20.70;1.00;;;;;;5029522;28;20398;-67
2023/07/27 10:57:20;;;;;;;7.40;2.23;;;20.90;1.00;;;;;;5030284;28;20398;-68
2023/07/27 10:59:48;;;;;;;6.33;1.40;;;20.90;1.00;;;;;;5029448;28;20899;-68
2023/07/27 11:02:17;;;;;;;6.00;1.60;;;20.90;1.00;;;;;;5028852;28;20407;-68
2023/07/27 11:04:43;;;;;;;7.13;1.52;;;21.10;1.00;;;;;;5029083;28;20398;-67
2023/07/27 11:07:10;;;;;;;6.20;1.60;;;21.10;1.00;;;;;;5028572;28;20473;-67
2023/07/27 11:09:37;;;;;;;6.47;1.80;;;21.20;1.00;;;;;;5028597;28;20394;-67
2023/07/27 11:12:03;;;;;;;7.80;1.75;;;21.50;1.00;;;;;;5028881;28;20434;-67
2023/07/27 11:14:30;;;;;;;6.47;1.70;;;21.60;1.00;;;;;;5027788;28;20851;-67
2023/07/27 11:16:56;;;;;;;7.65;1.70;;;21.70;1.00;;;;;;5019051;28;20912;-68
2023/07/27 11:19:24;;;;;;;5.90;1.70;;;21.80;1.00;;;;;;5018392;28;20468;-67
2023/07/27 11:21:50;;;;;;;5.40;1.40;;;21.80;1.00;;;;;;5028946;28;20403;-67
2023/07/27 11:24:18;;;;;;;5.70;1.80;;;21.60;1.00;;;;;;5011306;28;20400;-68
2023/07/27 11:26:44;;;;;;;5.80;1.50;;;21.60;1.00;;;;;;5028956;28;20450;-68
2023/07/27 11:29:10;;;;;;;7.10;1.80;;;21.70;1.00;;;;;;5027943;28;20422;-68
2023/07/27 11:31:35;;;;;;;9.90;1.80;;;21.70;1.00;;;;;;5029030;28;20383;-69
2023/07/27 11:34:03;;;;;;;6.50;1.37;;;21.70;1.00;;;;;;5029014;28;20883;-68
2023/07/27 11:36:33;;;;;;;7.63;2.13;;;21.50;1.00;;;;;;5015931;28;20916;-67
2023/07/27 11:38:59;;;;;;;8.10;1.88;;;21.40;1.00;;;;;;5022180;28;20478;-68
2023/07/27 11:41:27;;;;;;;5.65;1.40;;;21.50;1.00;;;;;;5024254;28;20403;-68
2023/07/27 11:43:55;;;;;;;6.63;1.67;;;21.50;1.00;;;;;;5024395;28;20471;-67
2023/07/27 11:46:22;;;;;;;6.70;1.30;;;21.50;1.00;;;;;;5024826;28;20430;-67
2023/07/27 11:48:51;;;;;;;6.50;1.20;;;21.30;1.00;;;;;;5027438;28;20405;-67
2023/07/27 11:51:17;;;;;;;5.43;1.50;;;21.20;1.00;;;;;;5027800;28;20387;-68
2023/07/27 11:53:47;;;;;;;6.47;1.42;;;21.20;1.00;;;;;;5023499;28;20418;-68
2023/07/27 11:56:13;;;;;;;5.43;1.55;;;21.40;1.00;;;;;;5027832;28;20848;-68
2023/07/27 11:58:41;;;;;;;5.50;1.50;;;21.20;1.00;;;;;;5027804;28;20444;-68
2023/07/27 12:01:07;;;;;;;6.57;1.85;;;21.20;1.00;;;;;;5026640;28;20569;-68
2023/07/27 12:03:33;;;;;;;5.40;1.60;;;21.30;35.30;;;;;;5027216;28;20829;-68
2023/07/27 12:06:02;;;;;;;5.32;1.35;;;21.50;88.40;;;;;;5023902;28;20426;-68
2023/07/27 12:08:29;;;;;;;6.82;1.50;;;21.70;18.60;;;;;;5009209;28;20411;-68
2023/07/27 12:10:57;;;;;;;5.85;1.60;;;21.70;1.00;;;;;;5018869;28;20468;-68
2023/07/27 12:13:24;;;;;;;5.30;1.35;;;21.70;1.00;;;;;;5017983;28;20392;-67
2023/07/27 12:15:56;;;;;;;6.50;1.80;;;21.60;1.00;;;;;;5028562;28;20947;-67
2023/07/27 12:18:25;;;;;;;5.30;1.10;;;21.50;1.00;;;;;;5027255;28;20399;-68
2023/07/27 12:20:51;;;;;;;6.45;1.70;;;21.50;1.00;;;;;;5027756;28;20427;-70
2023/07/27 12:23:16;;;;;;;6.80;1.80;;;21.40;99.90;;;;;;5024279;28;20409;-68
2023/07/27 12:25:42;;;;;;;6.00;1.50;;;21.40;99.90;;;;;;5025268;28;20930;-68
2023/07/27 12:28:08;;;;;;;6.00;2.20;;;21.50;1.00;;;;;;5017145;28;20480;-68
2023/07/27 12:30:33;;;;;;;8.93;1.70;;;21.40;99.90;;;;;;5007334;28;21015;-68
2023/07/27 12:32:59;;;;;;;5.80;1.30;;;21.40;99.90;;;;;;5024845;28;20387;-68
2023/07/27 12:35:27;;;;;;;5.82;1.75;;;21.50;99.90;;;;;;5028410;28;20427;-68
2023/07/27 12:37:52;;;;;;;7.68;1.90;;;21.60;99.90;;;;;;5010841;28;20391;-68
2023/07/27 12:40:18;;;;;;;7.90;1.80;;;21.40;99.90;;;;;;5028540;28;20391;-68
2023/07/27 12:42:44;;;;;;;6.80;1.70;;;21.30;1.00;;;;;;5028241;28;20807;-68
2023/07/27 12:45:10;;;;;;;6.85;1.50;;;21.30;91.00;;;;;;5028162;28;20447;-68
2023/07/27 12:47:35;;;;;;;7.03;1.70;;;21.20;75.50;;;;;;5028286;28;20387;-68
2023/07/27 12:50:01;;;;;;;6.40;1.90;;;21.10;1.00;;;;;;5028423;28;20395;-68